createdAt,value
2023-03-14T00:25:49.183Z,1
2023-03-14T00:54:24.633Z,1
2023-03-14T01:23:04.301Z,1
2023-03-14T01:51:29.284Z,1
2023-03-14T02:19:58.494Z,1
2023-03-14T02:48:35.784Z,3
2023-03-14T03:17:08.118Z,1
2023-03-14T03:45:41.322Z,1
2023-03-14T04:14:14.560Z,1
2023-03-14T04:42:50.818Z,1
2023-03-14T05:11:27.730Z,3
2023-03-14T05:39:58.463Z,3
2023-03-14T06:08:37.521Z,1
2023-03-14T06:37:04.563Z,1
2023-03-14T07:05:37.927Z,1
2023-03-14T07:34:13.751Z,3
2023-03-14T08:02:51.366Z,1
2023-03-14T08:31:22.634Z,1
2023-03-14T08:59:50.766Z,2
2023-03-14T09:28:31.897Z,0
2023-03-14T09:57:05.729Z,1
2023-03-14T10:25:25.591Z,1
2023-03-14T10:53:40.011Z,0
2023-03-14T11:22:10.406Z,1
2023-03-14T11:50:35.695Z,1
2023-03-14T12:18:55.138Z,3
2023-03-14T12:47:08.128Z,3
2023-03-14T13:15:30.538Z,3
2023-03-14T13:43:50.585Z,3
2023-03-14T14:12:27.766Z,1
2023-03-14T14:41:00.103Z,3
2023-03-14T15:09:36.971Z,3
2023-03-14T15:37:50.210Z,3
2023-03-14T16:06:19.572Z,7
2023-03-14T16:34:41.046Z,4
2023-03-14T17:03:04.425Z,3
2023-03-14T17:31:22.728Z,3
2023-03-14T17:59:57.046Z,4
2023-03-14T18:28:21.047Z,9
2023-03-14T18:56:50.355Z,20
2023-03-14T19:25:06.203Z,10
2023-03-14T19:53:32.807Z,6
2023-03-14T20:21:50.465Z,3
2023-03-14T20:50:18.907Z,3
2023-03-14T21:18:51.687Z,4
2023-03-14T21:47:12.388Z,1
2023-03-14T22:15:49.689Z,4
2023-03-14T22:44:27.897Z,10
2023-03-14T23:13:00.621Z,6
2023-03-14T23:41:41.460Z,4
